createdAt,value
2019-05-13T00:00:37.956Z,87.91
2019-05-13T00:03:08.252Z,87.95
2019-05-13T00:05:38.632Z,87.90
2019-05-13T00:08:09.060Z,87.98
2019-05-13T00:10:39.621Z,87.91
2019-05-13T00:13:09.982Z,87.94
2019-05-13T00:15:40.411Z,88.01
2019-05-13T00:18:10.729Z,88.10
2019-05-13T00:20:41.136Z,88.39
2019-05-13T00:23:11.452Z,88.35
2019-05-13T00:25:44.217Z,88.31
2019-05-13T00:28:14.748Z,88.35
2019-05-13T00:30:46.231Z,88.58
2019-05-13T00:33:16.705Z,88.56
2019-05-13T00:35:47.123Z,88.69
2019-05-13T00:38:17.509Z,88.76
2019-05-13T00:40:47.901Z,88.76
2019-05-13T00:43:18.658Z,88.71
2019-05-13T00:45:48.977Z,88.81
2019-05-13T00:48:19.337Z,88.80
2019-05-13T00:50:49.702Z,88.59
2019-05-13T00:53:20.036Z,88.32
2019-05-13T00:55:50.446Z,88.13
2019-05-13T00:58:20.889Z,88.04
2019-05-13T01:00:51.185Z,87.89
2019-05-13T01:03:21.502Z,87.78
2019-05-13T01:05:53.529Z,87.80
2019-05-13T01:08:25.316Z,87.68
2019-05-13T01:10:55.604Z,87.74
2019-05-13T01:13:26.005Z,87.81
2019-05-13T01:15:56.359Z,87.71
2019-05-13T01:18:26.715Z,87.78
2019-05-13T01:20:57.419Z,87.70
2019-05-13T01:23:27.837Z,87.81
2019-05-13T01:25:58.220Z,87.66
2019-05-13T01:28:31.065Z,87.55
2019-05-13T01:31:01.421Z,87.60
2019-05-13T01:33:31.765Z,87.69
2019-05-13T01:36:05.252Z,87.53
2019-05-13T01:38:35.375Z,87.46
2019-05-13T01:41:05.896Z,87.33
2019-05-13T01:43:36.431Z,87.05
2019-05-13T01:46:06.797Z,86.89
2019-05-13T01:48:37.120Z,86.58
2019-05-13T01:51:07.511Z,86.50
2019-05-13T01:53:37.893Z,86.38
2019-05-13T01:56:08.864Z,86.21
2019-05-13T01:58:39.310Z,86.05
2019-05-13T02:01:09.657Z,85.87
2019-05-13T02:03:39.977Z,85.80
2019-05-13T02:06:10.364Z,85.64
2019-05-13T02:08:41.071Z,85.57
2019-05-13T02:11:13.284Z,85.33
2019-05-13T02:13:44.700Z,85.35
2019-05-13T02:16:15.731Z,85.27
2019-05-13T02:18:46.095Z,85.40
2019-05-13T02:21:17.549Z,85.57
2019-05-13T02:23:47.862Z,85.79
2019-05-13T02:26:18.219Z,85.84
2019-05-13T02:28:48.643Z,85.75
2019-05-13T02:31:31.980Z,85.59
2019-05-13T02:33:53.070Z,85.38
2019-05-13T02:36:23.339Z,85.25
2019-05-13T02:38:53.779Z,84.93
2019-05-13T02:41:24.177Z,84.70
2019-05-13T02:43:54.673Z,84.59
2019-05-13T02:46:25.031Z,84.57
2019-05-13T02:48:55.367Z,84.39
2019-05-13T02:51:25.765Z,84.33
2019-05-13T02:53:56.133Z,84.42
2019-05-13T02:56:26.485Z,84.22
2019-05-13T02:58:56.914Z,84.09
2019-05-13T03:01:27.288Z,84.02
2019-05-13T03:03:57.675Z,84.05
2019-05-13T03:06:28.178Z,83.86
2019-05-13T03:08:58.663Z,83.69
2019-05-13T03:11:28.950Z,83.40
2019-05-13T03:13:59.359Z,83.20
2019-05-13T03:16:52.425Z,83.13
2019-05-13T03:19:22.922Z,82.83
2019-05-13T03:21:53.280Z,82.46
2019-05-13T03:24:23.832Z,82.36
2019-05-13T03:26:54.387Z,82.07
2019-05-13T03:29:24.678Z,81.95
2019-05-13T03:31:56.437Z,81.85
2019-05-13T03:34:27.882Z,81.94
2019-05-13T03:36:58.519Z,81.98
2019-05-13T03:39:33.202Z,82.17
2019-05-13T03:42:04.525Z,81.97
2019-05-13T03:44:35.675Z,82.16
2019-05-13T03:47:06.011Z,82.03
2019-05-13T03:49:37.678Z,82.23
2019-05-13T03:52:08.667Z,81.88
2019-05-13T03:54:39.342Z,81.65
2019-05-13T03:57:12.590Z,81.43
2019-05-13T03:59:43.741Z,81.35
2019-05-13T04:02:14.417Z,80.98
2019-05-13T04:04:44.729Z,80.90
2019-05-13T04:07:15.368Z,80.58
2019-05-13T04:09:46.103Z,81.08
2019-05-13T04:12:16.513Z,80.91
2019-05-13T04:14:47.286Z,80.90
2019-05-13T04:17:17.844Z,80.91
2019-05-13T04:19:48.299Z,80.59
2019-05-13T04:22:18.616Z,80.14
2019-05-13T04:24:52.753Z,79.95
2019-05-13T04:27:23.347Z,79.99
2019-05-13T04:29:54.302Z,80.02
2019-05-13T04:32:28.699Z,79.46
2019-05-13T04:34:57.360Z,77.66
2019-05-13T04:37:27.745Z,72.07
2019-05-13T04:39:58.950Z,66.72
2019-05-13T04:42:33.109Z,59.70
2019-05-13T04:45:03.144Z,57.62
2019-05-13T04:47:33.750Z,58.95
2019-05-13T04:50:04.114Z,61.42
2019-05-13T04:52:34.710Z,64.57
2019-05-13T04:55:05.173Z,68.03
2019-05-13T04:57:35.637Z,70.54
2019-05-13T05:00:07.181Z,71.43
2019-05-13T05:02:56.546Z,73.28
2019-05-13T05:05:46.247Z,73.43
2019-05-13T05:08:28.333Z,73.20
2019-05-13T05:11:15.246Z,73.79
2019-05-13T05:14:24.135Z,74.84
2019-05-13T05:17:35.129Z,75.13
2019-05-13T05:20:33.322Z,75.42
2019-05-13T05:23:46.651Z,76.00
2019-05-13T05:26:55.181Z,76.19
2019-05-13T05:29:32.517Z,74.55
2019-05-13T05:32:28.356Z,73.87
2019-05-13T05:35:52.003Z,73.84
2019-05-13T05:38:52.176Z,74.28
2019-05-13T05:41:25.376Z,72.67
2019-05-13T05:43:57.917Z,73.04
2019-05-13T05:46:32.306Z,73.85
2019-05-13T05:49:08.832Z,73.99
2019-05-13T05:51:41.902Z,72.66
2019-05-13T05:54:14.761Z,70.56
2019-05-13T05:56:45.761Z,69.58
2019-05-13T06:02:57.445Z,69.68
2019-05-13T06:05:28.433Z,67.48
2019-05-13T06:07:58.830Z,65.83
2019-05-13T06:10:45.799Z,61.11
2019-05-13T06:13:02.766Z,58.44
2019-05-13T06:15:33.855Z,54.67
2019-05-13T06:18:04.291Z,53.58
2019-05-13T06:20:34.658Z,52.04
2019-05-13T06:23:05.071Z,55.25
2019-05-13T06:25:35.427Z,53.15
2019-05-13T06:28:05.925Z,51.30
2019-05-13T06:30:36.447Z,48.24
2019-05-13T06:33:07.198Z,47.63
2019-05-13T06:35:37.990Z,47.78
2019-05-13T06:38:08.357Z,44.79
2019-05-13T06:40:38.665Z,43.28
2019-05-13T06:43:08.955Z,41.46
2019-05-13T06:45:39.382Z,40.66
2019-05-13T06:48:11.720Z,40.61
2019-05-13T06:50:41.875Z,39.62
2019-05-13T06:53:12.812Z,38.22
2019-05-13T06:55:43.175Z,36.81
2019-05-13T06:58:13.500Z,39.51
2019-05-13T07:00:43.939Z,40.90
2019-05-13T07:03:14.588Z,42.00
2019-05-13T07:05:45.800Z,42.90
2019-05-13T07:08:17.667Z,44.43
2019-05-13T07:10:48.010Z,43.71
2019-05-13T07:13:21.777Z,41.87
2019-05-13T07:15:52.287Z,42.55
2019-05-13T07:18:22.759Z,41.36
2019-05-13T07:20:53.278Z,40.95
2019-05-13T07:23:23.778Z,40.65
2019-05-13T07:25:54.076Z,39.73
2019-05-13T07:28:24.454Z,39.95
2019-05-13T07:30:54.830Z,40.53
2019-05-13T07:33:25.272Z,39.25
2019-05-13T07:35:58.545Z,40.60
2019-05-13T07:38:29.349Z,40.39
2019-05-13T07:41:04.215Z,41.57
2019-05-13T07:43:35.830Z,45.35
2019-05-13T07:46:06.257Z,45.33
2019-05-13T07:48:36.603Z,46.82
2019-05-13T07:51:07.050Z,48.11
2019-05-13T07:53:37.387Z,49.80
2019-05-13T07:56:07.709Z,52.94
2019-05-13T07:58:38.107Z,54.61
2019-05-13T08:01:08.480Z,56.60
2019-05-13T08:03:38.796Z,57.56
2019-05-13T08:06:11.120Z,58.61
2019-05-13T08:08:41.807Z,58.95
2019-05-13T08:11:12.963Z,59.98
2019-05-13T08:13:44.567Z,61.08
2019-05-13T08:16:15.180Z,62.78
2019-05-13T08:18:45.601Z,62.70
2019-05-13T08:21:15.975Z,62.86
2019-05-13T08:23:46.452Z,63.80
2019-05-13T08:26:17.267Z,63.72
2019-05-13T08:29:00.406Z,62.57
2019-05-13T08:31:21.640Z,63.71
2019-05-13T08:33:52.069Z,62.89
2019-05-13T08:36:23.524Z,63.55
2019-05-13T08:38:53.975Z,62.95
2019-05-13T08:41:24.603Z,64.82
2019-05-13T08:43:55.581Z,64.96
2019-05-13T08:46:26.197Z,65.06
2019-05-13T08:48:57.036Z,65.34
2019-05-13T08:51:32.307Z,65.31
2019-05-13T08:54:03.535Z,64.92
2019-05-13T08:56:33.971Z,66.10
2019-05-13T08:59:06.460Z,65.56
2019-05-13T09:01:36.886Z,64.87
2019-05-13T09:04:07.228Z,65.54
2019-05-13T09:06:37.574Z,67.18
2019-05-13T09:09:11.519Z,67.36
2019-05-13T09:11:42.285Z,66.53
2019-05-13T09:14:13.048Z,65.24
2019-05-13T09:16:43.520Z,67.47
2019-05-13T09:19:16.310Z,64.90
2019-05-13T09:21:46.026Z,66.85
2019-05-13T09:24:24.592Z,66.41
2019-05-13T09:26:48.459Z,64.47
2019-05-13T09:29:18.908Z,66.31
2019-05-13T09:31:51.768Z,66.23
2019-05-13T09:34:22.129Z,67.67
2019-05-13T09:36:52.664Z,67.27
2019-05-13T09:39:23.129Z,67.80
2019-05-13T09:41:53.563Z,67.53
2019-05-13T09:44:23.919Z,66.20
2019-05-13T09:46:54.431Z,66.88
2019-05-13T09:49:24.827Z,67.52
2019-05-13T09:51:55.113Z,66.89
2019-05-13T09:54:25.478Z,66.15
2019-05-13T09:56:55.848Z,66.62
2019-05-13T09:59:26.071Z,67.56
2019-05-13T10:01:56.282Z,67.75
2019-05-13T10:04:26.375Z,67.93
2019-05-13T10:06:56.672Z,67.31
2019-05-13T10:09:26.791Z,67.19
2019-05-13T10:11:56.892Z,65.82
2019-05-13T10:14:27.201Z,65.80
2019-05-13T10:16:57.441Z,66.06
2019-05-13T10:19:27.582Z,65.97
2019-05-13T10:21:57.889Z,65.62
2019-05-13T10:24:28.241Z,65.37
2019-05-13T10:26:58.415Z,64.72
2019-05-13T10:29:31.534Z,65.98
2019-05-13T10:32:02.630Z,65.50
2019-05-13T10:34:34.222Z,66.05
2019-05-13T10:37:05.797Z,65.16
2019-05-13T10:39:36.287Z,66.59
2019-05-13T10:42:06.629Z,66.85
2019-05-13T10:44:37.080Z,67.27
2019-05-13T10:47:07.495Z,66.59
2019-05-13T10:49:37.851Z,66.90
2019-05-13T10:52:08.654Z,67.47
2019-05-13T10:54:41.095Z,67.46
2019-05-13T10:57:13.713Z,65.93
2019-05-13T10:59:43.660Z,66.08
2019-05-13T11:02:14.291Z,66.05
2019-05-13T11:04:44.791Z,64.47
2019-05-13T11:07:15.246Z,64.11
2019-05-13T11:09:45.641Z,63.25
2019-05-13T11:12:16.006Z,61.73
2019-05-13T11:14:46.773Z,63.16
2019-05-13T11:17:23.279Z,63.99
2019-05-13T11:19:50.612Z,63.94
2019-05-13T11:22:22.467Z,62.64
2019-05-13T11:24:53.031Z,63.35
2019-05-13T11:27:23.635Z,62.90
2019-05-13T11:29:53.987Z,62.58
2019-05-13T11:32:24.299Z,64.09
2019-05-13T11:34:54.756Z,60.48
2019-05-13T11:37:25.470Z,62.47
2019-05-13T11:39:55.832Z,62.70
2019-05-13T11:42:26.312Z,61.39
2019-05-13T11:44:56.619Z,62.64
2019-05-13T11:47:27.339Z,61.14
2019-05-13T11:49:57.876Z,62.07
2019-05-13T11:52:28.402Z,64.67
2019-05-13T11:54:58.813Z,65.74
2019-05-13T11:57:31.044Z,65.28
2019-05-13T12:00:02.534Z,66.54
2019-05-13T12:02:33.424Z,67.30
2019-05-13T12:05:04.166Z,67.94
2019-05-13T12:07:34.765Z,67.71
2019-05-13T12:15:32.794Z,68.75
2019-05-13T12:17:52.354Z,69.08
2019-05-13T12:20:21.622Z,67.76
2019-05-13T12:22:52.139Z,66.88
2019-05-13T12:25:22.686Z,67.01
2019-05-13T12:27:53.095Z,66.42
2019-05-13T12:30:23.444Z,66.58
2019-05-13T12:32:53.740Z,66.43
2019-05-13T12:35:43.749Z,64.16
2019-05-13T12:38:14.050Z,64.33
2019-05-13T12:40:44.352Z,63.64
2019-05-13T12:43:14.904Z,63.19
2019-05-13T12:45:45.526Z,62.13
2019-05-13T12:48:15.915Z,62.68
2019-05-13T12:50:46.360Z,60.94
2019-05-13T12:53:16.734Z,62.79
2019-05-13T12:55:52.694Z,64.67
2019-05-13T12:58:19.385Z,65.21
2019-05-13T13:00:52.920Z,65.56
2019-05-13T13:03:23.143Z,66.46
2019-05-13T13:05:54.054Z,67.14
2019-05-13T13:10:56.539Z,67.28
2019-05-13T13:13:54.070Z,67.93
2019-05-13T13:16:03.238Z,67.67
2019-05-13T13:18:31.166Z,68.90
2019-05-13T13:21:06.978Z,69.50
2019-05-13T13:23:34.353Z,67.71
2019-05-13T13:26:13.716Z,68.39
2019-05-13T13:28:36.536Z,69.42
2019-05-13T13:31:06.766Z,70.38
2019-05-13T13:33:36.921Z,70.69
2019-05-13T13:36:07.078Z,69.76
2019-05-13T13:38:37.407Z,69.74
2019-05-13T13:41:07.651Z,69.92
2019-05-13T13:43:38.046Z,70.33
2019-05-13T13:48:43.721Z,70.28
2019-05-13T13:51:14.132Z,70.21
2019-05-13T13:53:45.031Z,69.82
2019-05-13T13:56:15.240Z,70.12
2019-05-13T13:58:45.464Z,69.77
2019-05-13T14:01:19.771Z,70.08
2019-05-13T14:03:47.641Z,70.50
2019-05-13T14:06:44.448Z,67.01
2019-05-13T14:07:12.875Z,70.66
2019-05-13T14:07:20.454Z,71.33
2019-05-13T14:08:51.933Z,70.16
2019-05-13T14:11:23.278Z,71.07
2019-05-13T14:13:55.588Z,71.47
2019-05-13T14:16:32.534Z,71.76
2019-05-13T14:18:58.000Z,72.25
2019-05-13T14:21:28.221Z,72.06
2019-05-13T14:23:58.241Z,72.73
2019-05-13T14:26:28.675Z,73.36
2019-05-13T14:28:58.999Z,74.28
2019-05-13T14:31:31.694Z,74.87
2019-05-13T14:34:03.653Z,75.11
2019-05-13T14:36:34.077Z,74.41
2019-05-13T14:39:05.310Z,74.06
2019-05-13T14:41:35.598Z,74.50
2019-05-13T14:44:05.899Z,74.25
2019-05-13T14:46:47.266Z,74.33
2019-05-13T14:49:08.212Z,73.32
2019-05-13T14:51:38.413Z,73.12
2019-05-13T14:54:08.654Z,73.66
2019-05-13T14:56:39.122Z,73.23
2019-05-13T14:59:11.675Z,72.37
2019-05-13T15:01:41.580Z,72.28
2019-05-13T15:04:12.364Z,72.57
2019-05-13T15:06:42.897Z,73.39
2019-05-13T15:09:13.062Z,73.84
2019-05-13T15:11:43.396Z,74.33
2019-05-13T15:14:13.511Z,74.87
2019-05-13T15:17:00.264Z,75.51
2019-05-13T15:19:15.659Z,75.84
2019-05-13T15:21:46.461Z,76.30
2019-05-13T15:24:16.829Z,76.62
2019-05-13T15:26:47.464Z,76.69
2019-05-13T15:29:18.140Z,76.71
2019-05-13T15:31:48.671Z,76.75
2019-05-13T15:34:18.855Z,76.93
2019-05-13T15:36:50.762Z,76.48
2019-05-13T15:39:20.980Z,77.00
2019-05-13T15:41:52.375Z,77.06
2019-05-13T15:44:23.181Z,76.41
2019-05-13T15:46:53.346Z,76.52
2019-05-13T15:49:23.407Z,77.54
2019-05-13T15:51:54.596Z,77.96
2019-05-13T15:54:24.780Z,78.56
2019-05-13T15:56:54.922Z,79.03
2019-05-13T15:59:25.043Z,79.16
2019-05-13T16:01:55.305Z,79.35
2019-05-13T16:04:25.478Z,78.63
2019-05-13T16:06:55.737Z,79.07
2019-05-13T16:09:25.897Z,79.36
2019-05-13T16:11:56.123Z,79.22
2019-05-13T16:14:26.405Z,79.02
2019-05-13T16:16:56.714Z,78.25
2019-05-13T16:19:27.235Z,77.98
2019-05-13T16:21:57.484Z,78.51
2019-05-13T16:24:27.770Z,78.64
2019-05-13T16:26:57.970Z,78.35
2019-05-13T16:29:28.130Z,78.33
2019-05-13T16:31:58.650Z,77.99
2019-05-13T16:34:31.725Z,77.99
2019-05-13T16:37:02.333Z,78.35
2019-05-13T16:39:32.927Z,78.75
2019-05-13T16:42:03.236Z,79.15
2019-05-13T16:44:33.543Z,79.56
2019-05-13T16:47:03.893Z,79.82
2019-05-13T16:49:34.154Z,79.68
2019-05-13T16:52:04.669Z,79.91
2019-05-13T16:54:34.894Z,80.76
2019-05-13T16:57:05.116Z,80.80
2019-05-13T16:59:35.362Z,80.86
2019-05-13T17:02:05.624Z,80.99
2019-05-13T17:04:36.779Z,81.24
2019-05-13T17:07:07.020Z,81.58
2019-05-13T17:09:37.177Z,81.75
2019-05-13T17:12:07.389Z,81.90
2019-05-13T17:14:37.454Z,81.97
2019-05-13T17:17:07.623Z,82.19
2019-05-13T17:19:37.815Z,82.51
2019-05-13T17:22:08.084Z,82.49
2019-05-13T17:24:38.185Z,82.57
2019-05-13T17:27:08.361Z,82.82
2019-05-13T17:29:38.538Z,82.80
2019-05-13T17:32:08.831Z,83.12
2019-05-13T17:34:39.374Z,83.32
2019-05-13T17:37:11.753Z,83.48
2019-05-13T17:39:41.713Z,83.68
2019-05-13T17:42:12.395Z,83.86
2019-05-13T17:44:46.344Z,83.88
2019-05-13T17:47:15.105Z,84.03
2019-05-13T17:49:45.345Z,84.10
2019-05-13T17:52:16.649Z,84.05
2019-05-13T17:54:47.241Z,83.86
2019-05-13T17:57:21.553Z,83.84
2019-05-13T17:59:52.250Z,83.99
2019-05-13T18:02:22.486Z,84.15
2019-05-13T18:04:52.583Z,84.23
2019-05-13T18:07:22.879Z,84.28
2019-05-13T18:09:53.156Z,84.01
2019-05-13T18:12:23.422Z,83.82
2019-05-13T18:14:53.740Z,83.86
2019-05-13T18:17:25.013Z,84.14
2019-05-13T18:19:55.145Z,84.47
2019-05-13T18:22:25.417Z,84.50
2019-05-13T18:24:55.602Z,84.63
2019-05-13T18:27:25.875Z,84.77
2019-05-13T18:29:56.137Z,84.78
2019-05-13T18:32:26.687Z,84.79
2019-05-13T18:34:56.955Z,84.69
2019-05-13T18:37:28.250Z,84.26
2019-05-13T18:39:58.447Z,84.07
2019-05-13T18:42:28.585Z,83.98
2019-05-13T18:44:58.841Z,84.00
2019-05-13T18:47:31.105Z,83.88
2019-05-13T18:50:02.372Z,83.37
2019-05-13T18:52:32.800Z,83.29
2019-05-13T18:55:08.022Z,83.26
2019-05-13T18:57:42.034Z,83.31
2019-05-13T19:00:12.484Z,83.69
2019-05-13T19:02:42.732Z,83.85
2019-05-13T19:05:13.756Z,83.96
2019-05-13T19:07:43.862Z,83.73
2019-05-13T19:10:14.070Z,83.59
2019-05-13T19:12:44.384Z,83.70
2019-05-13T19:15:14.782Z,83.44
2019-05-13T19:17:44.865Z,83.27
2019-05-13T19:20:15.650Z,83.16
2019-05-13T19:22:45.798Z,83.03
2019-05-13T19:25:45.593Z,82.96
2019-05-13T19:28:16.077Z,82.97
2019-05-13T19:30:46.265Z,82.75
2019-05-13T19:33:16.584Z,82.71
2019-05-13T19:35:46.995Z,82.49
2019-05-13T19:38:17.100Z,82.62
2019-05-13T19:40:47.285Z,83.41
2019-05-13T19:43:18.699Z,83.78
2019-05-13T19:45:49.096Z,84.07
2019-05-13T19:48:21.701Z,84.10
2019-05-13T19:50:52.140Z,84.27
2019-05-13T19:53:22.620Z,84.93
2019-05-13T19:55:52.892Z,85.63
2019-05-13T19:58:23.621Z,86.36
2019-05-13T20:00:53.898Z,86.74
2019-05-13T20:03:24.141Z,86.54
2019-05-13T20:05:54.460Z,86.52
2019-05-13T20:08:24.913Z,86.51
2019-05-13T20:10:55.165Z,86.33
2019-05-13T20:13:25.414Z,86.24
2019-05-13T20:15:55.842Z,85.83
2019-05-13T20:18:26.634Z,85.57
2019-05-13T20:20:56.955Z,85.30
2019-05-13T20:23:27.238Z,84.95
2019-05-13T20:25:57.879Z,84.91
2019-05-13T20:28:28.214Z,84.84
2019-05-13T20:30:58.595Z,84.76
2019-05-13T20:33:31.629Z,84.44
2019-05-13T20:36:01.697Z,84.47
2019-05-13T20:38:32.139Z,84.48
2019-05-13T20:41:02.369Z,84.50
2019-05-13T20:43:33.043Z,84.24
2019-05-13T20:46:03.392Z,84.06
2019-05-13T20:48:33.674Z,83.75
2019-05-13T20:51:03.942Z,83.67
2019-05-13T20:53:34.253Z,83.27
2019-05-13T20:56:04.750Z,83.01
2019-05-13T20:58:36.106Z,82.92
2019-05-13T21:01:06.688Z,82.96
2019-05-13T21:03:37.098Z,82.79
2019-05-13T21:06:07.352Z,82.41
2019-05-13T21:08:37.714Z,82.03
2019-05-13T21:11:08.025Z,81.74
2019-05-13T21:13:38.432Z,81.61
2019-05-13T21:16:08.797Z,81.84
2019-05-13T21:18:41.835Z,81.70
2019-05-13T21:21:11.807Z,81.54
2019-05-13T21:23:42.336Z,81.36
2019-05-13T21:26:15.417Z,81.25
2019-05-13T21:28:44.780Z,81.16
2019-05-13T21:31:15.079Z,81.65
2019-05-13T21:33:45.442Z,81.95
2019-05-13T21:36:16.008Z,82.14
2019-05-13T21:38:46.631Z,82.06
2019-05-13T21:41:17.608Z,81.83
2019-05-13T21:43:47.690Z,81.59
2019-05-13T21:46:17.948Z,81.52
2019-05-13T21:48:48.278Z,81.46
2019-05-13T21:51:18.587Z,81.38
2019-05-13T21:53:48.905Z,81.03
2019-05-13T21:56:22.916Z,80.99
2019-05-13T21:58:52.133Z,81.01
2019-05-13T22:01:23.389Z,80.86
2019-05-13T22:03:53.865Z,80.95
2019-05-13T22:06:24.121Z,81.05
2019-05-13T22:08:54.372Z,81.38
2019-05-13T22:11:24.558Z,81.61
2019-05-13T22:13:54.675Z,81.72
2019-05-13T22:16:25.067Z,81.76
2019-05-13T22:18:55.269Z,81.82
2019-05-13T22:21:25.498Z,82.31
2019-05-13T22:23:55.672Z,82.47
2019-05-13T22:26:25.903Z,82.16
2019-05-13T22:28:55.969Z,82.08
2019-05-13T22:31:26.272Z,81.67
2019-05-13T22:33:56.571Z,81.84
2019-05-13T22:36:26.779Z,81.98
2019-05-13T22:38:57.027Z,82.28
2019-05-13T22:41:27.229Z,82.39
2019-05-13T22:43:58.879Z,82.67
2019-05-13T22:46:31.941Z,83.09
2019-05-13T22:49:01.600Z,83.10
2019-05-13T22:51:42.730Z,83.10
2019-05-13T22:54:12.943Z,83.11
2019-05-13T22:56:43.170Z,83.11
2019-05-13T22:59:13.938Z,83.29
2019-05-13T23:01:45.088Z,83.39
2019-05-13T23:04:15.268Z,83.41
2019-05-13T23:06:45.351Z,83.37
2019-05-13T23:09:15.546Z,83.22
2019-05-13T23:11:45.744Z,83.28
2019-05-13T23:14:15.993Z,83.51
2019-05-13T23:16:46.310Z,83.47
2019-05-13T23:19:16.623Z,83.49
2019-05-13T23:21:46.913Z,83.28
2019-05-13T23:24:16.988Z,83.13
2019-05-13T23:26:47.171Z,83.13
2019-05-13T23:29:17.524Z,83.02
2019-05-13T23:31:47.773Z,83.08
2019-05-13T23:34:18.418Z,82.93
2019-05-13T23:36:48.766Z,82.80
2019-05-13T23:39:19.025Z,82.60
2019-05-13T23:41:51.994Z,82.70
2019-05-13T23:44:27.679Z,82.61
2019-05-13T23:46:54.087Z,82.58
2019-05-13T23:49:24.641Z,82.71
2019-05-13T23:51:55.112Z,82.33
2019-05-13T23:54:25.426Z,81.84
2019-05-13T23:56:55.737Z,81.31
2019-05-13T23:59:26.073Z,81.16
